createdAt,value
2018-07-01T00:00:57.932Z,999.25
2018-07-01T00:02:08.023Z,999.23
2018-07-01T00:03:17.842Z,999.28
2018-07-01T00:04:27.927Z,999.32
2018-07-01T00:05:38.009Z,999.28
2018-07-01T00:06:47.829Z,999.28
2018-07-01T00:07:57.915Z,999.28
2018-07-01T00:09:08.023Z,999.32
2018-07-01T00:10:17.853Z,999.3
2018-07-01T00:11:27.955Z,999.32
2018-07-01T00:12:38.024Z,999.3
2018-07-01T00:13:48.101Z,999.31
2018-07-01T00:14:58.172Z,999.29
2018-07-01T00:16:07.724Z,999.31
2018-07-01T00:17:17.669Z,999.3
2018-07-01T00:18:27.484Z,999.35
2018-07-01T00:19:37.045Z,999.28
2018-07-01T00:20:47.127Z,999.3
2018-07-01T00:21:57.647Z,999.33
2018-07-01T00:23:07.475Z,999.33
2018-07-01T00:24:17.299Z,999.31
2018-07-01T00:25:27.153Z,999.3
2018-07-01T00:26:37.236Z,999.3
2018-07-01T00:27:47.346Z,999.25
2018-07-01T00:28:57.514Z,999.27
2018-07-01T00:30:07.622Z,999.31
2018-07-01T00:31:17.705Z,999.29
2018-07-01T00:32:27.826Z,999.29
2018-07-01T00:33:37.878Z,999.29
2018-07-01T00:34:47.682Z,999.3
2018-07-01T00:35:56.972Z,999.29
2018-07-01T00:37:07.805Z,999.27
2018-07-01T00:38:17.931Z,999.26
2018-07-01T00:39:28.051Z,999.29
2018-07-01T00:40:38.169Z,999.25
2018-07-01T00:41:48.274Z,999.23
2018-07-01T00:42:58.095Z,999.2
2018-07-01T00:44:08.174Z,999.23
2018-07-01T00:45:18.249Z,999.21
2018-07-01T00:46:28.325Z,999.26
2018-07-01T00:47:38.399Z,999.17
2018-07-01T00:48:48.479Z,999.22
2018-07-01T00:49:58.566Z,999.18
2018-07-01T00:51:08.797Z,999.16
2018-07-01T00:52:18.924Z,999.18
2018-07-01T00:53:28.735Z,999.16
2018-07-01T00:54:38.804Z,999.15
2018-07-01T00:55:48.868Z,999.18
2018-07-01T00:56:58.933Z,999.15
2018-07-01T00:58:08.800Z,999.2
2018-07-01T00:59:18.870Z,999.18
2018-07-01T01:00:28.975Z,999.18
2018-07-01T01:01:39.064Z,999.19
2018-07-01T01:02:49.203Z,999.16
2018-07-01T01:03:59.288Z,999.17
2018-07-01T01:05:09.376Z,999.15
2018-07-01T01:06:19.449Z,999.16
2018-07-01T01:07:29.528Z,999.13
2018-07-01T01:08:39.603Z,999.13
2018-07-01T01:09:50.129Z,999.16
2018-07-01T01:11:00.206Z,999.16
2018-07-01T01:12:10.292Z,999.14
2018-07-01T01:13:20.360Z,999.12
2018-07-01T01:14:30.438Z,999.1
2018-07-01T01:15:40.528Z,999.11
2018-07-01T01:16:50.332Z,999.13
2018-07-01T01:18:00.461Z,999.1
2018-07-01T01:19:10.533Z,999.06
2018-07-01T01:20:20.076Z,999.11
2018-07-01T01:21:30.161Z,999.07
2018-07-01T01:22:40.275Z,999.13
2018-07-01T01:23:50.367Z,999.11
2018-07-01T01:25:00.565Z,999.07
2018-07-01T01:26:10.636Z,999.11
2018-07-01T01:27:20.714Z,999.06
2018-07-01T01:28:30.513Z,999.12
2018-07-01T01:29:40.590Z,999.09
2018-07-01T01:30:50.691Z,999.07
2018-07-01T01:32:00.778Z,999.1
2018-07-01T01:33:10.631Z,999.08
2018-07-01T01:34:20.456Z,999.09
2018-07-01T01:35:30.557Z,999.09
2018-07-01T01:36:40.662Z,999.08
2018-07-01T01:37:50.742Z,999.1
2018-07-01T01:39:00.815Z,999.08
2018-07-01T01:40:10.901Z,999.08
2018-07-01T01:41:20.972Z,999.05
2018-07-01T01:42:31.039Z,999.02
2018-07-01T01:43:41.109Z,999.01
2018-07-01T01:44:50.915Z,999.02
2018-07-01T01:46:01.249Z,999.02
2018-07-01T01:47:11.321Z,998.98
2018-07-01T01:48:21.397Z,998.98
2018-07-01T01:49:31.288Z,998.99
2018-07-01T01:50:41.365Z,998.98
2018-07-01T01:51:51.464Z,998.99
2018-07-01T01:53:01.532Z,998.95
2018-07-01T01:54:11.595Z,998.95
2018-07-01T01:55:21.665Z,998.97
2018-07-01T01:56:31.746Z,998.94
2018-07-01T01:57:41.811Z,998.96
2018-07-01T01:58:51.626Z,998.92
2018-07-01T02:00:01.719Z,998.92
2018-07-01T02:01:11.811Z,998.97
2018-07-01T02:02:21.640Z,998.95
2018-07-01T02:03:31.706Z,998.98
2018-07-01T02:04:41.787Z,999.01
2018-07-01T02:05:51.847Z,998.99
2018-07-01T02:07:01.952Z,999
2018-07-01T02:08:11.828Z,999.01
2018-07-01T02:09:21.933Z,998.97
2018-07-01T02:10:32.008Z,998.95
2018-07-01T02:11:42.083Z,998.99
2018-07-01T02:12:52.143Z,998.99
2018-07-01T02:14:01.958Z,998.97
2018-07-01T02:15:12.046Z,999.01
2018-07-01T02:16:22.118Z,999.01
2018-07-01T02:17:32.185Z,999.02
2018-07-01T02:18:42.002Z,999.01
2018-07-01T02:19:51.814Z,999
2018-07-01T02:21:01.614Z,998.96
2018-07-01T02:22:11.667Z,998.99
2018-07-01T02:23:21.748Z,999.04
2018-07-01T02:24:31.843Z,999.03
2018-07-01T02:25:44.345Z,998.99
2018-07-01T02:26:54.411Z,999.03
2018-07-01T02:28:04.500Z,999.04
2018-07-01T02:29:14.611Z,998.99
2018-07-01T02:30:24.681Z,998.97
2018-07-01T02:31:34.771Z,999.03
2018-07-01T02:32:44.633Z,999.02
2018-07-01T02:33:54.722Z,999.05
2018-07-01T02:35:04.532Z,999.06
2018-07-01T02:36:14.700Z,999.06
2018-07-01T02:37:24.812Z,999.08
2018-07-01T02:38:34.979Z,999.08
2018-07-01T02:39:45.058Z,999.16
2018-07-01T02:40:55.128Z,999.13
2018-07-01T02:42:04.957Z,999.18
2018-07-01T02:43:15.042Z,999.16
2018-07-01T02:44:25.134Z,999.15
2018-07-01T02:45:34.954Z,999.2
2018-07-01T02:46:45.064Z,999.2
2018-07-01T02:47:55.124Z,999.2
2018-07-01T02:49:04.957Z,999.2
2018-07-01T02:50:15.133Z,999.22
2018-07-01T02:51:25.205Z,999.25
2018-07-01T02:52:35.027Z,999.22
2018-07-01T02:53:44.902Z,999.25
2018-07-01T02:54:55.025Z,999.23
2018-07-01T02:56:05.241Z,999.22
2018-07-01T02:57:15.369Z,999.24
2018-07-01T02:58:25.198Z,999.24
2018-07-01T02:59:35.291Z,999.19
2018-07-01T03:00:45.357Z,999.2
2018-07-01T03:01:55.175Z,999.18
2018-07-01T03:34:31.674Z,999.32
2018-07-01T03:35:41.699Z,999.28
2018-07-01T03:36:51.532Z,999.29
2018-07-01T03:38:01.619Z,999.27
2018-07-01T03:39:11.695Z,999.26
2018-07-01T03:40:21.775Z,999.26
2018-07-01T03:41:31.858Z,999.26
2018-07-01T03:42:41.928Z,999.29
2018-07-01T03:43:52.021Z,999.31
2018-07-01T03:45:02.101Z,999.3
2018-07-01T03:46:12.178Z,999.32
2018-07-01T03:47:22.252Z,999.31
2018-07-01T03:48:32.051Z,999.33
2018-07-01T03:49:42.134Z,999.35
2018-07-01T03:50:51.942Z,999.38
2018-07-01T03:52:02.076Z,999.35
2018-07-01T03:53:12.156Z,999.35
2018-07-01T03:54:22.204Z,999.36
2018-07-01T03:55:32.273Z,999.36
2018-07-01T03:56:42.343Z,999.36
2018-07-01T03:57:52.470Z,999.36
2018-07-01T03:59:02.536Z,999.32
2018-07-01T04:00:12.616Z,999.32
2018-07-01T04:01:22.713Z,999.38
2018-07-01T04:02:32.534Z,999.38
2018-07-01T04:03:42.667Z,999.43
2018-07-01T04:04:52.796Z,999.41
2018-07-01T04:06:02.895Z,999.38
2018-07-01T04:07:12.698Z,999.39
2018-07-01T04:08:22.792Z,999.42
2018-07-01T04:09:32.854Z,999.44
2018-07-01T04:10:42.916Z,999.41
2018-07-01T04:11:52.985Z,999.41
2018-07-01T04:13:03.065Z,999.44
2018-07-01T04:14:12.883Z,999.45
2018-07-01T04:15:22.955Z,999.49
2018-07-01T04:16:33.042Z,999.5
2018-07-01T04:17:43.365Z,999.52
2018-07-01T04:18:53.440Z,999.5
2018-07-01T04:20:03.518Z,999.54
2018-07-01T04:21:13.593Z,999.52
2018-07-01T04:22:23.679Z,999.54
2018-07-01T04:23:33.765Z,999.52
2018-07-01T04:24:43.558Z,999.54
2018-07-01T04:25:53.634Z,999.52
2018-07-01T04:27:03.445Z,999.5
2018-07-01T04:28:13.511Z,999.57
2018-07-01T04:29:23.828Z,999.56
2018-07-01T04:30:33.641Z,999.61
2018-07-01T04:31:43.707Z,999.59
2018-07-01T04:32:53.547Z,999.6
2018-07-01T04:34:03.604Z,999.55
2018-07-01T04:35:13.427Z,999.57
2018-07-01T04:36:23.509Z,999.57
2018-07-01T04:37:33.576Z,999.61
2018-07-01T04:38:43.649Z,999.64
2018-07-01T04:39:53.742Z,999.67
2018-07-01T04:41:03.566Z,999.65
2018-07-01T04:42:13.377Z,999.64
2018-07-01T04:43:23.450Z,999.67
2018-07-01T04:44:33.531Z,999.7
2018-07-01T04:45:43.353Z,999.67
2018-07-01T04:46:53.441Z,999.67
2018-07-01T04:48:03.507Z,999.65
2018-07-01T04:49:13.596Z,999.63
2018-07-01T04:50:23.630Z,999.7
2018-07-01T04:51:33.434Z,999.71
2018-07-01T04:52:43.507Z,999.74
2018-07-01T04:53:53.600Z,999.76
2018-07-01T04:55:03.492Z,999.81
2018-07-01T04:56:14.130Z,999.86
2018-07-01T04:57:24.215Z,999.89
2018-07-01T04:58:33.757Z,999.92
2018-07-01T04:59:43.848Z,1000.56
2018-07-01T05:00:53.929Z,1000.5
2018-07-01T05:02:03.783Z,1000.1
2018-07-01T05:03:14.026Z,1000.01
2018-07-01T05:04:24.099Z,1000.3
2018-07-01T05:05:34.167Z,1000.68
2018-07-01T05:06:44.249Z,1000.1
2018-07-01T05:07:54.062Z,1000.54
2018-07-01T05:09:03.877Z,1000.2
2018-07-01T05:10:13.937Z,1000.48
2018-07-01T05:11:23.498Z,1000.58
2018-07-01T05:12:33.574Z,1000.15
2018-07-01T05:13:43.680Z,1000.27
2018-07-01T05:14:53.235Z,1000.17
2018-07-01T05:16:03.331Z,1000.07
2018-07-01T05:17:13.556Z,1000.41
2018-07-01T05:18:23.752Z,1000.25
2018-07-01T05:19:33.840Z,1000.44
2018-07-01T05:20:43.920Z,1000.33
2018-07-01T05:21:54.007Z,999.99
2018-07-01T05:23:04.104Z,999.94
2018-07-01T05:24:14.177Z,999.99
2018-07-01T05:25:24.276Z,1000.31
2018-07-01T05:26:34.375Z,1000
2018-07-01T05:27:44.643Z,1000.04
2018-07-01T05:28:54.745Z,999.98
2018-07-01T05:30:04.824Z,999.98
2018-07-01T05:31:14.916Z,999.94
2018-07-01T05:32:24.483Z,999.94
2018-07-01T05:33:34.313Z,1000.01
2018-07-01T05:34:44.506Z,1000.02
2018-07-01T05:35:54.606Z,1000.01
2018-07-01T05:37:04.675Z,1000.09
2018-07-01T05:38:14.747Z,1000.12
2018-07-01T05:39:24.833Z,1000.13
2018-07-01T05:40:34.903Z,1000.17
2018-07-01T05:41:45.027Z,1000.32
2018-07-01T05:42:55.157Z,1000.66
2018-07-01T05:44:04.966Z,1000.11
2018-07-01T05:45:14.782Z,1000.24
2018-07-01T05:46:24.849Z,1000.19
2018-07-01T05:47:34.920Z,1000.19
2018-07-01T05:48:45.003Z,1000.19
2018-07-01T05:49:55.087Z,1000.18
2018-07-01T05:51:05.198Z,1000.18
2018-07-01T05:52:15.030Z,1000.21
2018-07-01T05:53:25.143Z,1000.16
2018-07-01T05:54:35.217Z,1000.15
2018-07-01T05:55:45.034Z,1000.13
2018-07-01T05:56:55.118Z,1000.12
2018-07-01T05:58:05.005Z,1000.19
2018-07-01T05:59:14.826Z,1000.2
2018-07-01T06:00:24.689Z,1000.13
2018-07-01T06:01:34.514Z,1000.2
2018-07-01T06:02:44.609Z,1000.2
2018-07-01T06:03:54.689Z,1000.19
2018-07-01T06:05:04.515Z,1000.2
2018-07-01T06:06:14.652Z,1000.26
2018-07-01T06:07:24.737Z,1000.22
2018-07-01T06:08:34.913Z,1000.21
2018-07-01T06:09:45.405Z,1000.24
2018-07-01T06:10:55.483Z,1000.34
2018-07-01T06:12:05.596Z,1000.69
2018-07-01T06:13:15.696Z,1000.68
2018-07-01T06:14:25.783Z,1000.66
2018-07-01T06:15:35.893Z,1000.64
2018-07-01T06:16:45.998Z,1000.61
2018-07-01T06:17:56.565Z,1000.56
2018-07-01T06:19:06.669Z,1000.48
2018-07-01T06:20:16.753Z,1000.51
2018-07-01T06:21:26.835Z,1000.47
2018-07-01T06:22:36.943Z,1000.43
2018-07-01T06:23:47.038Z,1000.45
2018-07-01T06:24:57.117Z,1000.41
2018-07-01T06:26:07.230Z,1000.43
2018-07-01T06:27:17.300Z,1000.33
2018-07-01T06:28:27.377Z,1000.34
2018-07-01T06:29:37.448Z,1000.33
2018-07-01T06:30:47.531Z,1000.29
2018-07-01T06:31:57.653Z,1000.37
2018-07-01T06:33:07.745Z,1000.37
2018-07-01T06:34:17.571Z,1000.36
2018-07-01T06:35:27.663Z,1000.37
2018-07-01T06:36:37.750Z,1000.34
2018-07-01T06:37:47.827Z,1000.3
2018-07-01T06:38:57.917Z,1000.31
2018-07-01T06:40:07.995Z,1000.32
2018-07-01T06:41:18.134Z,1000.28
2018-07-01T06:42:28.200Z,1000.33
2018-07-01T06:43:38.278Z,1000.31
2018-07-01T06:44:48.368Z,1000.21
2018-07-01T06:45:58.457Z,1000.25
2018-07-01T06:47:08.532Z,1000.23
2018-07-01T06:48:18.609Z,1000.17
2018-07-01T06:49:28.769Z,1000.17
2018-07-01T06:50:39.090Z,1000.19
2018-07-01T06:51:49.170Z,1000.18
2018-07-01T06:52:59.038Z,1000.17
2018-07-01T06:54:09.120Z,1000.17
2018-07-01T06:55:19.179Z,1000.16
2018-07-01T06:56:29.293Z,1000.15
2018-07-01T06:57:39.830Z,1000.15
2018-07-01T06:58:49.701Z,1000.12
2018-07-01T06:59:59.787Z,1000.12
2018-07-01T07:01:09.883Z,1000.13
2018-07-01T07:02:19.999Z,1000.11
2018-07-01T07:03:30.315Z,1000.1
2018-07-01T07:04:40.457Z,1000.07
2018-07-01T07:05:50.541Z,999.98
2018-07-01T07:07:00.627Z,999.99
2018-07-01T07:08:10.708Z,999.99
2018-07-01T07:09:20.797Z,999.95
2018-07-01T07:10:30.884Z,999.97
2018-07-01T07:11:40.963Z,999.95
2018-07-01T07:12:51.066Z,1000.01
2018-07-01T07:14:01.122Z,1000.06
2018-07-01T07:15:11.211Z,1000.03
2018-07-01T07:16:21.410Z,999.92
2018-07-01T07:17:31.718Z,999.97
2018-07-01T07:18:41.812Z,999.96
2018-07-01T07:19:51.896Z,999.96
2018-07-01T07:21:01.734Z,999.91
2018-07-01T07:22:11.851Z,999.98
2018-07-01T07:23:21.689Z,1000
2018-07-01T07:24:31.602Z,1000
2018-07-01T07:25:41.937Z,999.99
2018-07-01T07:26:51.757Z,1000.03
2018-07-01T07:28:01.596Z,999.97
2018-07-01T07:29:11.694Z,999.94
2018-07-01T07:30:21.799Z,999.95
2018-07-01T07:31:31.588Z,999.98
2018-07-01T07:32:41.684Z,1000
2018-07-01T07:33:51.503Z,999.99
2018-07-01T07:35:01.580Z,1000.02
2018-07-01T07:36:11.682Z,1000.01
2018-07-01T07:37:20.984Z,1000.03
2018-07-01T07:38:31.098Z,1000.02
2018-07-01T07:39:41.166Z,1000.06
2018-07-01T07:40:51.268Z,1000.11
2018-07-01T07:42:01.086Z,1000.11
2018-07-01T07:43:11.146Z,1000.21
2018-07-01T07:44:20.721Z,1000.11
2018-07-01T07:45:30.790Z,1000.07
2018-07-01T07:46:40.871Z,1000.04
2018-07-01T07:47:50.960Z,1000.05
2018-07-01T07:49:01.059Z,1000
2018-07-01T07:50:11.147Z,1000.04
2018-07-01T07:51:21.215Z,1000.02
2018-07-01T07:52:31.306Z,1000.02
2018-07-01T07:53:41.414Z,1000.04
2018-07-01T07:54:51.516Z,1000.04
2018-07-01T07:56:01.637Z,1000.08
2018-07-01T07:57:11.772Z,1000.08
2018-07-01T07:58:21.854Z,1000.02
2018-07-01T07:59:31.893Z,1000.01
2018-07-01T08:00:41.737Z,999.99
2018-07-01T08:01:51.618Z,999.93
2018-07-01T08:03:01.622Z,999.93
2018-07-01T08:04:11.431Z,999.97
2018-07-01T08:05:21.518Z,999.92
2018-07-01T08:06:31.619Z,999.88
2018-07-01T08:07:40.906Z,999.88
2018-07-01T08:08:50.995Z,999.87
2018-07-01T08:10:01.077Z,999.82
2018-07-01T08:11:11.156Z,999.84
2018-07-01T08:12:21.505Z,999.81
2018-07-01T08:13:31.047Z,999.83
2018-07-01T08:14:40.860Z,999.81
2018-07-01T08:15:50.954Z,999.79
2018-07-01T08:17:01.030Z,999.77
2018-07-01T08:18:11.152Z,999.82
2018-07-01T08:19:21.243Z,999.79
2018-07-01T08:20:31.389Z,999.76
2018-07-01T08:21:41.472Z,999.83
2018-07-01T08:22:51.652Z,999.81
2018-07-01T08:24:01.733Z,999.82
2018-07-01T08:25:11.829Z,999.82
2018-07-01T08:26:21.913Z,999.87
2018-07-01T08:27:31.994Z,999.85
2018-07-01T08:28:42.088Z,999.81
2018-07-01T08:29:52.221Z,999.81
2018-07-01T08:31:02.323Z,999.79
2018-07-01T08:32:12.430Z,999.81
2018-07-01T08:33:22.513Z,999.83
2018-07-01T08:34:32.625Z,999.85
2018-07-01T08:35:42.989Z,999.81
2018-07-01T08:36:52.568Z,999.78
2018-07-01T08:38:03.008Z,999.83
2018-07-01T08:39:13.093Z,999.86
2018-07-01T08:40:23.197Z,999.88
2018-07-01T08:41:33.035Z,999.87
2018-07-01T08:42:43.113Z,999.87
2018-07-01T08:43:53.283Z,999.78
2018-07-01T08:45:03.385Z,999.79
2018-07-01T08:46:13.568Z,999.87
2018-07-01T08:47:23.301Z,999.86
2018-07-01T08:48:33.391Z,999.85
2018-07-01T08:49:43.261Z,999.91
2018-07-01T08:50:53.360Z,999.89
2018-07-01T08:52:03.452Z,999.85
2018-07-01T08:53:13.610Z,999.81
2018-07-01T08:54:23.723Z,999.83
2018-07-01T08:55:33.624Z,999.8
2018-07-01T08:56:43.715Z,999.81
2018-07-01T08:57:53.872Z,999.8
2018-07-01T08:59:03.956Z,999.85
2018-07-01T09:00:14.034Z,999.82
2018-07-01T09:01:24.185Z,999.81
2018-07-01T09:02:34.278Z,999.81
2018-07-01T09:03:44.388Z,999.83
2018-07-01T09:04:54.476Z,999.81
2018-07-01T09:06:04.807Z,999.81
2018-07-01T09:07:14.880Z,999.9
2018-07-01T09:08:24.760Z,999.89
2018-07-01T09:09:35.163Z,999.88
2018-07-01T09:10:45.331Z,999.87
2018-07-01T09:11:55.432Z,999.85
2018-07-01T09:13:05.557Z,999.97
2018-07-01T09:14:15.364Z,999.92
2018-07-01T09:15:25.460Z,999.91
2018-07-01T09:16:35.568Z,999.87
2018-07-01T09:17:45.131Z,999.89
2018-07-01T09:18:54.963Z,999.93
2018-07-01T09:20:04.782Z,999.86
2018-07-01T09:21:14.629Z,999.88
2018-07-01T09:22:24.735Z,999.81
2018-07-01T09:23:34.908Z,999.82
2018-07-01T09:24:45.262Z,999.86
2018-07-01T09:25:55.089Z,999.83
2018-07-01T09:27:05.184Z,999.92
2018-07-01T09:28:15.029Z,999.89
2018-07-01T09:29:24.858Z,999.92
2018-07-01T09:30:34.954Z,1000.01
2018-07-01T09:31:45.031Z,999.95
2018-07-01T09:32:55.131Z,999.98
2018-07-01T09:34:04.965Z,1000.02
2018-07-01T09:35:15.114Z,999.96
2018-07-01T09:36:24.919Z,999.96
2018-07-01T09:37:35.033Z,999.91
2018-07-01T09:38:44.877Z,999.88
2018-07-01T09:39:54.974Z,999.89
2018-07-01T09:41:05.073Z,999.93
2018-07-01T09:42:14.889Z,999.95
2018-07-01T09:43:24.776Z,999.98
2018-07-01T09:44:35.046Z,1000.03
2018-07-01T09:45:44.875Z,1000.01
2018-07-01T09:46:54.959Z,999.95
2018-07-01T09:48:05.049Z,999.89
2018-07-01T09:49:15.172Z,999.88
2018-07-01T09:50:25.114Z,999.83
2018-07-01T09:51:35.838Z,999.85
2018-07-01T09:52:45.926Z,999.79
2018-07-01T09:53:56.021Z,999.67
2018-07-01T09:55:05.833Z,999.68
2018-07-01T09:56:15.933Z,999.69
2018-07-01T09:57:26.031Z,999.69
2018-07-01T09:58:35.862Z,999.7
2018-07-01T09:59:45.945Z,999.72
2018-07-01T10:00:56.084Z,999.78
2018-07-01T10:02:06.480Z,999.79
2018-07-01T10:03:16.591Z,999.77
2018-07-01T10:04:26.414Z,999.75
2018-07-01T10:05:36.522Z,999.78
2018-07-01T10:06:46.363Z,999.79
2018-07-01T10:07:56.461Z,999.71
2018-07-01T10:09:06.578Z,999.73
2018-07-01T10:10:16.669Z,999.75
2018-07-01T10:11:26.754Z,999.69
2018-07-01T10:12:36.594Z,999.68
2018-07-01T10:13:46.424Z,999.63
2018-07-01T10:14:56.513Z,999.63
2018-07-01T10:18:47.025Z,999.67
2018-07-01T10:19:57.558Z,999.66
2018-07-01T10:21:07.665Z,999.64
2018-07-01T10:22:17.768Z,999.57
2018-07-01T10:23:27.961Z,999.57
2018-07-01T10:24:37.825Z,999.54
2018-07-01T10:25:47.928Z,999.6
2018-07-01T10:26:58.279Z,999.61
2018-07-01T10:28:08.367Z,999.64
2018-07-01T10:29:18.185Z,999.66
2018-07-01T10:30:28.323Z,999.63
2018-07-01T10:31:38.478Z,999.65
2018-07-01T10:32:48.317Z,999.59
2018-07-01T10:33:58.443Z,999.63
2018-07-01T10:35:08.533Z,999.58
2018-07-01T10:36:18.628Z,999.55
2018-07-01T10:37:28.742Z,999.55
2018-07-01T10:38:38.557Z,999.49
2018-07-01T10:39:48.668Z,999.53
2018-07-01T10:40:58.767Z,999.56
2018-07-01T10:42:08.851Z,999.59
2018-07-01T10:43:18.962Z,999.55
2018-07-01T10:44:29.055Z,999.53
2018-07-01T10:45:39.160Z,999.61
2018-07-01T10:46:49.118Z,999.51
2018-07-01T10:47:59.213Z,999.48
2018-07-01T10:49:09.307Z,999.52
2018-07-01T10:50:19.406Z,999.47
2018-07-01T10:51:29.512Z,999.45
2018-07-01T10:52:39.487Z,999.48
2018-07-01T10:53:49.631Z,999.47
2018-07-01T10:54:59.716Z,999.5
2018-07-01T10:56:09.877Z,999.44
2018-07-01T10:57:19.724Z,999.48
2018-07-01T10:58:29.896Z,999.45
2018-07-01T10:59:39.754Z,999.47
2018-07-01T11:00:49.893Z,999.46
2018-07-01T11:01:59.736Z,999.47
2018-07-01T11:03:09.910Z,999.55
2018-07-01T11:04:20.014Z,999.49
2018-07-01T11:05:30.109Z,999.56
2018-07-01T11:06:39.933Z,999.57
2018-07-01T11:07:50.038Z,999.51
2018-07-01T11:09:00.137Z,999.49
2018-07-01T11:10:10.215Z,999.51
2018-07-01T11:11:20.298Z,999.52
2018-07-01T11:12:30.152Z,999.52
2018-07-01T11:13:40.246Z,999.55
2018-07-01T11:14:50.342Z,999.51
2018-07-01T11:16:00.495Z,999.53
2018-07-01T11:17:10.594Z,999.43
2018-07-01T11:18:20.736Z,999.47
2018-07-01T11:19:30.835Z,999.47
2018-07-01T11:20:40.680Z,999.49
2018-07-01T11:21:50.783Z,999.56
2018-07-01T11:23:00.643Z,999.48
2018-07-01T11:24:10.745Z,999.5
2018-07-01T11:25:20.824Z,999.48
2018-07-01T11:26:31.233Z,999.59
2018-07-01T11:27:41.521Z,999.45
2018-07-01T11:28:51.118Z,999.5
2018-07-01T11:30:01.216Z,999.56
2018-07-01T11:31:11.296Z,999.5
2018-07-01T11:32:21.386Z,999.42
2018-07-01T11:33:31.527Z,999.47
2018-07-01T11:34:41.430Z,999.45
2018-07-01T11:35:51.565Z,999.43
2018-07-01T11:37:01.658Z,999.41
2018-07-01T11:38:11.759Z,999.43
2018-07-01T11:39:21.882Z,999.38
2018-07-01T11:40:31.976Z,999.36
2018-07-01T11:41:41.833Z,999.45
2018-07-01T11:42:51.946Z,999.5
2018-07-01T11:44:02.083Z,999.45
2018-07-01T11:45:11.647Z,999.51
2018-07-01T11:46:21.733Z,999.52
2018-07-01T11:47:31.810Z,999.39
2018-07-01T11:48:41.895Z,999.33
2018-07-01T11:49:51.977Z,999.36
2018-07-01T11:51:02.090Z,999.39
2018-07-01T11:52:12.192Z,999.36
2018-07-01T11:53:22.464Z,999.45
2018-07-01T11:54:32.561Z,999.39
2018-07-01T11:55:42.660Z,999.39
2018-07-01T11:56:52.477Z,999.29
2018-07-01T11:58:02.597Z,999.32
2018-07-01T11:59:11.969Z,999.35
2018-07-01T12:00:22.055Z,999.42
2018-07-01T12:01:32.162Z,999.42
2018-07-01T12:02:42.308Z,999.43
2018-07-01T12:03:52.395Z,999.42
2018-07-01T12:05:16.204Z,999.37
2018-07-01T12:06:27.229Z,999.35
2018-07-01T12:07:37.326Z,999.32
2018-07-01T12:08:47.716Z,999.28
2018-07-01T12:09:57.815Z,999.29
2018-07-01T12:11:07.920Z,999.23
2018-07-01T12:12:17.780Z,999.21
2018-07-01T12:13:27.901Z,999.21
2018-07-01T12:14:38.001Z,999.2
2018-07-01T12:15:48.135Z,999.2
2018-07-01T12:16:58.258Z,999.16
2018-07-01T12:18:08.368Z,999.19
2018-07-01T12:19:18.478Z,999.2
2018-07-01T12:20:28.610Z,999.26
2018-07-01T12:21:38.707Z,999.23
2018-07-01T12:22:48.547Z,999.25
2018-07-01T12:23:58.631Z,999.3
2018-07-01T12:25:08.725Z,999.3
2018-07-01T12:26:18.358Z,999.26
2018-07-01T12:27:28.493Z,999.3
2018-07-01T12:28:38.574Z,999.26
2018-07-01T12:29:48.602Z,999.28
2018-07-01T12:30:58.673Z,999.21
2018-07-01T12:32:08.785Z,999.3
2018-07-01T12:33:18.909Z,999.27
2018-07-01T12:34:29.046Z,999.28
2018-07-01T12:35:39.214Z,999.25
2018-07-01T12:36:49.295Z,999.26
2018-07-01T12:37:58.941Z,999.23
2018-07-01T12:39:09.039Z,999.18
2018-07-01T12:40:19.171Z,999.15
2018-07-01T12:41:29.296Z,999.16
2018-07-01T12:42:39.172Z,999.23
2018-07-01T12:43:49.350Z,999.25
2018-07-01T12:44:59.457Z,999.25
2018-07-01T12:46:09.313Z,999.25
2018-07-01T12:47:19.436Z,999.25
2018-07-01T12:48:29.576Z,999.33
2018-07-01T12:49:39.436Z,999.24
2018-07-01T12:50:49.531Z,999.22
2018-07-01T12:51:59.644Z,999.2
2018-07-01T12:53:09.495Z,999.18
2018-07-01T12:54:19.648Z,999.16
2018-07-01T12:55:29.481Z,999.29
2018-07-01T12:56:39.668Z,999.26
2018-07-01T12:57:49.869Z,999.21
2018-07-01T12:58:59.991Z,999.18
2018-07-01T13:00:09.832Z,999.31
2018-07-01T13:01:19.934Z,999.23
2018-07-01T13:02:30.071Z,999.28
2018-07-01T13:03:40.461Z,999.27
2018-07-01T13:04:50.553Z,999.25
2018-07-01T13:06:00.616Z,999.17
2018-07-01T13:07:10.452Z,999.33
2018-07-01T13:08:20.588Z,999.23
2018-07-01T13:09:30.885Z,999.22
2018-07-01T13:10:40.700Z,999.21
2018-07-01T13:11:50.865Z,999.22
2018-07-01T13:13:00.647Z,999.21
2018-07-01T13:14:10.746Z,999.13
2018-07-01T13:15:20.832Z,999.09
2018-07-01T13:16:30.677Z,999.03
2018-07-01T13:17:40.814Z,999.04
2018-07-01T13:18:50.921Z,998.99
2018-07-01T13:20:01.013Z,999.05
2018-07-01T13:21:11.058Z,998.97
2018-07-01T13:22:21.155Z,999.03
2018-07-01T13:23:31.287Z,999.04
2018-07-01T13:24:41.376Z,999.01
2018-07-01T13:25:51.255Z,999.11
2018-07-01T13:27:01.084Z,999.1
2018-07-01T13:28:11.200Z,999.02
2018-07-01T13:29:21.095Z,999.06
2018-07-01T13:30:30.940Z,999.16
2018-07-01T13:31:40.780Z,999.13
2018-07-01T13:32:50.930Z,999.19
2018-07-01T13:34:01.033Z,999.13
2018-07-01T13:35:10.876Z,999.06
2018-07-01T13:36:20.453Z,999.11
2018-07-01T13:37:30.575Z,999.05
2018-07-01T13:38:40.668Z,999.03
2018-07-01T13:39:50.508Z,999.08
2018-07-01T13:41:00.665Z,999.03
2018-07-01T13:42:10.756Z,999.05
2018-07-01T13:43:20.868Z,999
2018-07-01T13:44:30.444Z,998.99
2018-07-01T13:45:40.564Z,999.07
2018-07-01T13:46:50.895Z,999.03
2018-07-01T13:48:00.987Z,999.04
2018-07-01T13:49:11.083Z,999.04
2018-07-01T13:50:21.473Z,999.1
2018-07-01T13:51:31.590Z,999.06
2018-07-01T13:52:41.399Z,999.06
2018-07-01T13:53:51.479Z,999.01
2018-07-01T13:55:01.580Z,999.07
2018-07-01T13:56:11.703Z,999.05
2018-07-01T13:57:21.791Z,999.02
2018-07-01T13:58:31.637Z,999.15
2018-07-01T13:59:41.748Z,999.15
2018-07-01T14:00:51.810Z,999.03
2018-07-01T14:02:01.916Z,999.02
2018-07-01T14:03:12.041Z,999.09
2018-07-01T14:04:22.166Z,999.06
2018-07-01T14:05:32.274Z,999.02
2018-07-01T14:06:42.258Z,999.01
2018-07-01T14:07:52.417Z,999.04
2018-07-01T14:09:02.300Z,999.05
2018-07-01T14:10:12.409Z,999.07
2018-07-01T14:11:22.227Z,999.08
2018-07-01T14:12:32.384Z,999.09
2018-07-01T14:13:42.493Z,999.07
2018-07-01T14:14:52.589Z,999.15
2018-07-01T14:16:02.710Z,999.12
2018-07-01T14:17:12.789Z,999.12
2018-07-01T14:18:23.399Z,999.09
2018-07-01T14:19:33.515Z,999.05
2018-07-01T14:20:43.353Z,999.11
2018-07-01T14:21:53.475Z,999.09
2018-07-01T14:23:03.603Z,999.13
2018-07-01T14:24:13.484Z,999.18
2018-07-01T14:25:23.635Z,999.14
2018-07-01T14:26:33.745Z,999.08
2018-07-01T14:27:43.839Z,999.09
2018-07-01T14:28:53.958Z,999.08
2018-07-01T14:30:04.326Z,999.05
2018-07-01T14:31:14.770Z,999.06
2018-07-01T14:32:25.357Z,999.11
2018-07-01T14:33:35.710Z,999.1
2018-07-01T14:34:45.800Z,999.02
2018-07-01T14:35:55.924Z,999.06
2018-07-01T14:37:06.063Z,998.96
2018-07-01T14:38:16.167Z,999.09
2018-07-01T14:39:26.253Z,999.16
2018-07-01T14:40:36.345Z,999.1
2018-07-01T14:41:46.518Z,999.11
2018-07-01T14:42:56.620Z,999.07
2018-07-01T14:44:06.180Z,999.07
2018-07-01T14:45:16.267Z,999.14
2018-07-01T14:46:26.355Z,999.16
2018-07-01T14:47:36.519Z,999.1
2018-07-01T14:48:46.340Z,999.15
2018-07-01T14:49:56.460Z,999.08
2018-07-01T14:51:06.571Z,999.1
2018-07-01T14:52:16.668Z,999.08
2018-07-01T14:53:26.771Z,999.14
2018-07-01T14:54:36.862Z,999.15
2018-07-01T14:55:47.054Z,999.13
2018-07-01T14:56:56.900Z,999.1
2018-07-01T14:58:06.994Z,999.18
2018-07-01T14:59:17.117Z,999.09
2018-07-01T15:00:27.213Z,999.08
2018-07-01T15:01:37.037Z,999.05
2018-07-01T15:02:47.162Z,999.01
2018-07-01T15:03:56.999Z,999.06
2018-07-01T15:05:07.115Z,999.05
2018-07-01T15:06:16.973Z,999.05